Baltimore Washington International/Thurgood Marshall Airport

Airport
ICAO code: 
KBWI
IATA Code: 
BWI
Summary
ICAO Region: 
NAM
Territory: 
Location: 
Baltimore, Maryland,
Serving: 
Baltimore and Washington DC
Elevation: 
146 ft
Coordinates: 
Aerial View: 
39° 10' 24.122" N, 76° 40' 5.23" W
Airport WX: 
Cumulonimbus
Metar
Observation
KBWI 210154Z 02010G16KT 360V070 10SM FEW170 M02/M12 A3036 RMK AO2 SLP281 T10171117
Station
Baltimore, Baltimore-Washington International Airport
Date/Time
2022-01-21 01:54:00
Wind direction
20°
Wind speed
10 kts
Lowest cloud amount
few clouds
Temperature
-1.7°C
Dew point
-11.7°C
Humidity
46%
Weather condition
n/a

Description

International airport serving Baltimore and Washington DC.

Climatology

Humid “subtropical” climate (Köppen climate classification Cfa) - characterized by hot, humid summers and cool winters. Significant amounts of precipitation occur in all seasons in most areas. Winter rainfall (and sometimes snowfall) is associated with large storms that the westerlies steer from west to east. Most summer rainfall occurs during thunderstorms and occasional tropical storms (hurricanes).

Runways

Designator Length Width Surface Rops
15L/33R 1524 30 ASP Yes/Yes
4/22 1829 46 ASP Yes/Yes
15R/33L 2896 46 ASP Yes/Yes
10/28 3201 61 ASP Yes/Yes
Airport map: 
Aerial View: 

Accidents and Serious Incidents at or in the vicinity of KBWI

SKYbrary Partners:

Safety knowledge contributed by: